Time;durP1;ratioP1;P1;durP2;ratioP2;P2;SDS_P1;SDS_P2;PMS_P1;PMS_P2;Temp;Humidity;BMP_temperature;BMP_pressure;BME280_temperature;BME280_humidity;BME280_pressure;Samples;Min_cycle;Max_cycle;Signal;HPM_P1;HPM_P2
2021/10/31 00:00:12;;;;;;;11.10;9.25;;;10.20;91.60;;;;;;5091563;28;20198;-65
2021/10/31 00:02:41;;;;;;;11.55;9.43;;;10.10;91.50;;;;;;5097300;27;20186;-66
2021/10/31 00:05:10;;;;;;;10.00;8.70;;;10.10;91.10;;;;;;5091803;28;20189;-66
2021/10/31 00:07:37;;;;;;;10.00;9.00;;;10.00;90.90;;;;;;5107932;28;20243;-65
2021/10/31 00:10:06;;;;;;;12.38;9.98;;;10.00;90.90;;;;;;5092361;28;21471;-66
2021/10/31 00:12:36;;;;;;;9.77;8.57;;;9.90;91.30;;;;;;5094041;27;20194;-65
2021/10/31 00:15:09;;;;;;;10.32;8.88;;;9.80;91.00;;;;;;5105320;28;20192;-69
2021/10/31 00:17:37;;;;;;;10.13;9.02;;;9.80;90.50;;;;;;5107443;28;20192;-67
2021/10/31 00:20:07;;;;;;;9.82;8.82;;;9.60;90.30;;;;;;5109570;28;20665;-67
2021/10/31 00:22:36;;;;;;;10.32;9.02;;;9.60;90.70;;;;;;5098859;28;20201;-67
2021/10/31 00:25:09;;;;;;;10.70;9.20;;;9.60;91.00;;;;;;5091698;28;20745;-65
2021/10/31 00:27:39;;;;;;;10.18;8.77;;;9.60;91.20;;;;;;5113029;27;20223;-65
2021/10/31 00:30:09;;;;;;;11.45;9.98;;;9.60;91.00;;;;;;5112192;28;20237;-66
2021/10/31 00:32:37;;;;;;;9.93;8.85;;;9.50;91.00;;;;;;5131200;28;20184;-66
2021/10/31 00:35:06;;;;;;;10.48;9.38;;;9.40;91.10;;;;;;5131806;27;20227;-67
2021/10/31 00:37:35;;;;;;;13.88;8.63;;;9.40;91.60;;;;;;5132341;28;20194;-66
2021/10/31 00:40:05;;;;;;;10.70;9.45;;;9.40;91.90;;;;;;5132084;27;20270;-67
2021/10/31 00:42:43;;;;;;;10.77;9.65;;;9.40;92.00;;;;;;5091870;28;20190;-66
2021/10/31 00:45:10;;;;;;;12.70;9.65;;;9.40;91.90;;;;;;5092243;28;20193;-66
2021/10/31 00:47:42;;;;;;;10.98;9.75;;;9.40;91.90;;;;;;5132510;27;20220;-66
2021/10/31 00:50:11;;;;;;;13.85;9.80;;;9.40;92.00;;;;;;5132544;27;20224;-67
2021/10/31 00:52:41;;;;;;;11.13;9.05;;;9.40;92.10;;;;;;5091449;28;20663;-66
2021/10/31 00:55:08;;;;;;;12.63;10.45;;;9.40;92.00;;;;;;5092061;28;20585;-66
2021/10/31 00:57:38;;;;;;;15.02;11.00;;;9.30;91.90;;;;;;5130941;28;20192;-68
2021/10/31 01:00:11;;;;;;;12.43;11.00;;;9.30;92.00;;;;;;5132586;27;20196;-66
2021/10/31 01:02:38;;;;;;;15.27;9.05;;;9.30;91.90;;;;;;5130193;27;20192;-66
2021/10/31 01:05:13;;;;;;;11.70;9.52;;;9.30;91.80;;;;;;5118503;27;20185;-65
2021/10/31 01:07:58;;;;;;;13.15;8.90;;;9.20;91.40;;;;;;5115645;28;20208;-65
2021/10/31 01:10:33;;;;;;;11.30;8.35;;;9.20;91.10;;;;;;5132022;27;20188;-66
2021/10/31 01:13:25;;;;;;;9.85;8.85;;;9.10;90.90;;;;;;5136152;27;20594;-66
2021/10/31 01:16:01;;;;;;;8.45;6.60;;;9.10;90.90;;;;;;5091928;28;20194;-66
2021/10/31 01:18:49;;;;;;;8.63;6.47;;;9.00;90.00;;;;;;5095158;28;20195;-66
2021/10/31 01:21:31;;;;;;;7.97;6.80;;;8.90;90.00;;;;;;5095238;28;20598;-66
2021/10/31 01:24:22;;;;;;;7.95;6.70;;;8.80;90.10;;;;;;5099174;27;20273;-66
2021/10/31 01:27:01;;;;;;;10.70;8.15;;;8.80;90.70;;;;;;5104750;28;20213;-65
2021/10/31 01:29:40;;;;;;;11.38;8.07;;;8.80;91.20;;;;;;5115581;27;20256;-65
2021/10/31 01:32:23;;;;;;;10.93;8.20;;;8.80;91.40;;;;;;5115254;28;20185;-66
2021/10/31 01:35:04;;;;;;;12.80;9.07;;;8.80;91.60;;;;;;5115482;28;20235;-65
2021/10/31 01:37:47;;;;;;;9.90;8.75;;;8.90;91.30;;;;;;5124640;27;20180;-65
2021/10/31 01:40:19;;;;;;;10.07;8.25;;;8.90;91.70;;;;;;5135762;27;20196;-66
2021/10/31 01:43:04;;;;;;;15.18;10.65;;;8.90;92.00;;;;;;5123971;27;20246;-65
2021/10/31 01:45:43;;;;;;;9.82;7.28;;;9.00;92.30;;;;;;5115145;28;20192;-66
2021/10/31 01:48:23;;;;;;;12.90;8.43;;;9.00;92.60;;;;;;5128573;27;20315;-65
2021/10/31 01:50:59;;;;;;;13.05;8.32;;;9.00;92.40;;;;;;5134927;27;20220;-65
2021/10/31 01:53:32;;;;;;;8.95;7.38;;;9.00;92.50;;;;;;5119310;27;20516;-66
2021/10/31 01:56:03;;;;;;;11.48;8.55;;;9.00;92.50;;;;;;5125486;27;20207;-66
2021/10/31 01:58:35;;;;;;;8.43;7.40;;;9.00;92.60;;;;;;5135502;27;20220;-66
2021/10/31 02:01:05;;;;;;;10.30;8.10;;;9.10;92.80;;;;;;5123946;27;20624;-66
2021/10/31 02:03:34;;;;;;;10.30;8.35;;;9.10;92.90;;;;;;5114733;28;20311;-65
2021/10/31 02:06:04;;;;;;;7.80;6.88;;;9.20;92.70;;;;;;5124313;27;20545;-65
2021/10/31 02:08:35;;;;;;;9.15;6.72;;;9.20;91.90;;;;;;5135162;27;20192;-66
2021/10/31 02:11:06;;;;;;;8.90;8.00;;;9.10;91.40;;;;;;5124692;27;20643;-65
2021/10/31 02:13:35;;;;;;;8.02;7.22;;;9.00;91.40;;;;;;5114698;28;20220;-65
2021/10/31 02:16:09;;;;;;;7.55;6.65;;;9.00;91.50;;;;;;5123099;27;20592;-66
2021/10/31 02:18:43;;;;;;;7.35;6.45;;;9.00;91.60;;;;;;5134269;27;20188;-65
2021/10/31 02:21:15;;;;;;;7.55;6.75;;;9.00;91.50;;;;;;5124759;27;20189;-66
2021/10/31 02:23:44;;;;;;;7.80;5.93;;;8.90;91.40;;;;;;5121990;27;20215;-66
2021/10/31 02:26:12;;;;;;;7.35;5.93;;;8.90;91.50;;;;;;5134598;27;20189;-65
2021/10/31 02:28:40;;;;;;;7.00;6.10;;;8.90;91.90;;;;;;5127819;27;20184;-65
2021/10/31 02:31:07;;;;;;;8.50;6.25;;;8.90;91.70;;;;;;5114425;27;20224;-66
2021/10/31 02:33:39;;;;;;;8.23;6.88;;;8.90;91.10;;;;;;5119049;27;20188;-65
2021/10/31 02:36:07;;;;;;;6.18;5.57;;;8.80;90.70;;;;;;5134578;27;20220;-65
2021/10/31 02:38:38;;;;;;;7.53;6.75;;;8.70;91.00;;;;;;5129616;27;20189;-66
2021/10/31 02:41:07;;;;;;;7.68;6.50;;;8.80;90.80;;;;;;5113887;28;20242;-67
2021/10/31 02:43:34;;;;;;;7.07;5.50;;;8.70;90.80;;;;;;5117458;27;20180;-66
2021/10/31 02:46:02;;;;;;;6.43;5.50;;;8.70;91.10;;;;;;5134360;27;20188;-66
2021/10/31 02:48:30;;;;;;;8.30;5.60;;;8.70;91.10;;;;;;5131093;27;20294;-65
2021/10/31 02:51:03;;;;;;;6.07;5.32;;;8.70;91.00;;;;;;5114308;27;20217;-65
2021/10/31 02:53:38;;;;;;;5.93;5.32;;;8.60;90.80;;;;;;5115877;27;20188;-65
2021/10/31 02:56:18;;;;;;;6.05;5.03;;;8.50;90.60;;;;;;5133880;27;20341;-65
2021/10/31 02:58:49;;;;;;;5.50;4.93;;;8.50;90.50;;;;;;5129568;27;20177;-65
2021/10/31 03:01:20;;;;;;;6.18;5.35;;;8.40;90.30;;;;;;5113594;28;20552;-65
2021/10/31 03:03:54;;;;;;;6.22;5.40;;;8.30;89.80;;;;;;5116888;27;20184;-65
2021/10/31 03:06:26;;;;;;;6.40;5.80;;;8.20;90.00;;;;;;5134228;27;20214;-65
2021/10/31 03:08:54;;;;;;;8.30;5.47;;;8.20;90.10;;;;;;5129206;27;20181;-65
2021/10/31 03:11:23;;;;;;;7.38;6.30;;;8.20;90.20;;;;;;5113281;28;20669;-65
2021/10/31 03:13:55;;;;;;;8.50;5.90;;;8.10;90.60;;;;;;5115890;27;20320;-65
2021/10/31 03:16:22;;;;;;;7.05;5.45;;;8.00;89.40;;;;;;5133877;27;20543;-66
2021/10/31 03:18:52;;;;;;;6.28;5.30;;;7.90;89.00;;;;;;5117745;27;20517;-65
2021/10/31 03:21:20;;;;;;;8.85;5.25;;;7.90;89.00;;;;;;5113021;28;20188;-65
2021/10/31 03:23:47;;;;;;;7.88;5.95;;;7.90;89.70;;;;;;5113137;28;20181;-65
2021/10/31 03:26:14;;;;;;;7.85;5.55;;;7.80;89.90;;;;;;5113032;28;20189;-66
2021/10/31 03:28:43;;;;;;;6.35;5.32;;;7.80;90.10;;;;;;5125055;27;20216;-65
2021/10/31 03:31:11;;;;;;;6.90;6.20;;;7.80;90.20;;;;;;5133591;27;20196;-65
2021/10/31 03:33:39;;;;;;;6.68;6.07;;;7.80;90.50;;;;;;5121201;27;20643;-65
2021/10/31 03:36:07;;;;;;;10.02;5.00;;;7.70;90.50;;;;;;5112811;28;20241;-66
2021/10/31 03:38:36;;;;;;;9.60;6.53;;;7.70;90.80;;;;;;5123706;27;20211;-65
2021/10/31 03:41:04;;;;;;;10.95;6.85;;;7.60;90.70;;;;;;5133499;27;20199;-65
2021/10/31 03:43:37;;;;;;;9.50;7.32;;;7.60;91.30;;;;;;5123056;27;20520;-65
2021/10/31 03:46:06;;;;;;;16.33;6.97;;;7.50;91.20;;;;;;5124647;27;20191;-66
2021/10/31 03:48:35;;;;;;;10.90;6.63;;;7.60;91.40;;;;;;5123210;27;20265;-65
2021/10/31 03:51:03;;;;;;;8.95;6.40;;;7.50;91.40;;;;;;5112609;28;20311;-65
2021/10/31 03:53:33;;;;;;;7.25;5.88;;;7.50;91.60;;;;;;5121162;27;20472;-65
2021/10/31 03:56:00;;;;;;;8.45;7.53;;;7.50;92.00;;;;;;5133316;27;20192;-66
2021/10/31 03:58:27;;;;;;;8.75;6.47;;;7.50;92.30;;;;;;5124782;27;20253;-66
2021/10/31 04:00:56;;;;;;;6.72;5.95;;;7.50;92.30;;;;;;5113197;28;20232;-65
2021/10/31 04:03:25;;;;;;;7.10;6.10;;;7.40;92.20;;;;;;5119126;27;20738;-65
2021/10/31 04:05:52;;;;;;;7.50;6.70;;;7.50;92.20;;;;;;5134076;27;20188;-65
2021/10/31 04:08:21;;;;;;;8.68;6.60;;;7.40;92.00;;;;;;5133765;27;20247;-65
2021/10/31 04:10:48;;;;;;;9.30;6.90;;;7.50;92.20;;;;;;5133426;27;20250;-65
2021/10/31 04:13:15;;;;;;;10.05;7.50;;;7.50;92.20;;;;;;5123903;27;20275;-66
2021/10/31 04:15:42;;;;;;;11.40;6.85;;;7.50;91.90;;;;;;5113002;28;20220;-65
2021/10/31 04:18:10;;;;;;;8.43;6.88;;;7.50;91.60;;;;;;5119088;28;20183;-65
2021/10/31 04:20:38;;;;;;;7.15;5.82;;;7.50;91.20;;;;;;5133632;27;20254;-66
2021/10/31 04:23:07;;;;;;;7.47;5.75;;;7.40;91.70;;;;;;5133278;27;20280;-65
2021/10/31 04:25:36;;;;;;;6.55;5.53;;;7.40;91.90;;;;;;5133617;27;20228;-66
2021/10/31 04:28:08;;;;;;;6.40;4.80;;;7.40;91.50;;;;;;5127101;27;20686;-66
2021/10/31 04:30:35;;;;;;;5.75;5.25;;;7.30;91.50;;;;;;5112891;28;20279;-66
2021/10/31 04:33:03;;;;;;;5.70;5.10;;;7.20;92.00;;;;;;5116357;28;20237;-65
2021/10/31 04:35:29;;;;;;;5.28;4.78;;;7.20;92.40;;;;;;5133328;27;20309;-66
2021/10/31 04:38:07;;;;;;;5.93;4.78;;;7.20;92.40;;;;;;5130858;27;20261;-66
2021/10/31 04:40:35;;;;;;;5.93;4.80;;;7.20;92.40;;;;;;5115524;27;20279;-65
2021/10/31 04:43:02;;;;;;;5.72;4.60;;;7.20;92.30;;;;;;5137086;27;20648;-66
2021/10/31 04:45:29;;;;;;;4.30;3.85;;;7.20;91.80;;;;;;5126100;27;20191;-65
2021/10/31 04:47:57;;;;;;;4.95;3.80;;;7.20;91.30;;;;;;5116376;28;20294;-66
2021/10/31 04:50:25;;;;;;;4.97;4.40;;;7.20;90.80;;;;;;5116330;28;20250;-65
2021/10/31 04:52:52;;;;;;;7.25;5.00;;;7.10;90.10;;;;;;5116299;28;20220;-65
2021/10/31 04:55:21;;;;;;;6.63;5.55;;;7.10;90.60;;;;;;5116412;28;20247;-65
2021/10/31 04:57:48;;;;;;;6.35;5.18;;;7.10;90.90;;;;;;5116728;28;20232;-65
2021/10/31 05:00:16;;;;;;;7.00;5.13;;;7.10;91.10;;;;;;5115947;27;20272;-65
2021/10/31 05:02:48;;;;;;;5.80;5.10;;;7.00;92.00;;;;;;5116282;28;20193;-65
2021/10/31 05:05:21;;;;;;;7.72;5.72;;;7.00;92.30;;;;;;5122027;27;20260;-65
2021/10/31 05:07:52;;;;;;;11.45;8.02;;;7.10;92.60;;;;;;5136732;27;20212;-65
2021/10/31 05:10:21;;;;;;;6.85;6.15;;;7.00;92.90;;;;;;5119389;27;20242;-65
2021/10/31 05:12:50;;;;;;;7.10;6.50;;;7.10;93.10;;;;;;5115558;28;20189;-65
2021/10/31 05:15:21;;;;;;;6.60;5.00;;;7.10;92.70;;;;;;5130573;27;20715;-64
2021/10/31 05:17:49;;;;;;;6.07;4.90;;;7.00;92.10;;;;;;5136495;27;20223;-65
2021/10/31 05:20:19;;;;;;;5.05;4.50;;;7.00;92.00;;;;;;5121103;27;20275;-65
2021/10/31 05:22:46;;;;;;;4.60;4.00;;;7.00;91.30;;;;;;5115936;28;20235;-65
2021/10/31 05:25:14;;;;;;;5.78;4.50;;;7.00;90.90;;;;;;5128984;27;20192;-64
2021/10/31 05:27:42;;;;;;;9.40;5.38;;;6.90;91.00;;;;;;5136293;27;20273;-65
2021/10/31 05:30:12;;;;;;;8.00;5.43;;;6.90;91.20;;;;;;5123203;27;20276;-64
2021/10/31 05:32:41;;;;;;;6.75;5.10;;;6.90;91.10;;;;;;5116332;27;20184;-65
2021/10/31 05:35:14;;;;;;;5.65;4.53;;;6.90;91.30;;;;;;5126702;27;20189;-65
2021/10/31 05:37:47;;;;;;;12.05;8.50;;;6.90;91.10;;;;;;5115431;28;20193;-66
2021/10/31 05:40:16;;;;;;;13.30;8.60;;;6.90;90.90;;;;;;5118845;27;20208;-66
2021/10/31 05:42:45;;;;;;;22.40;11.20;;;6.90;91.00;;;;;;5135874;27;20681;-66
2021/10/31 05:45:12;;;;;;;21.08;11.23;;;6.90;90.90;;;;;;5133022;27;20184;-66
2021/10/31 05:47:41;;;;;;;13.35;8.48;;;6.90;91.10;;;;;;5115059;28;20220;-66
2021/10/31 05:50:10;;;;;;;12.30;7.55;;;6.90;91.20;;;;;;5116398;27;20228;-66
2021/10/31 05:52:38;;;;;;;11.38;8.45;;;6.90;90.60;;;;;;5134747;27;20208;-66
2021/10/31 05:55:08;;;;;;;13.38;9.45;;;6.90;90.70;;;;;;5134512;27;20241;-66
2021/10/31 05:57:35;;;;;;;8.85;6.30;;;6.90;90.40;;;;;;5114775;28;20189;-67
2021/10/31 06:00:07;;;;;;;7.45;5.40;;;6.80;89.60;;;;;;5115337;28;20226;-67
2021/10/31 06:02:34;;;;;;;8.75;6.63;;;6.80;89.10;;;;;;5094704;28;20200;-66
2021/10/31 06:05:03;;;;;;;11.70;8.35;;;6.80;89.20;;;;;;5094697;28;20272;-66
2021/10/31 06:07:33;;;;;;;13.27;8.75;;;6.70;89.40;;;;;;5134178;27;20184;-66
2021/10/31 06:10:05;;;;;;;10.30;9.30;;;6.70;90.00;;;;;;5135334;27;20196;-67
2021/10/31 06:12:33;;;;;;;12.23;6.00;;;6.70;90.40;;;;;;5115355;27;20189;-67
2021/10/31 06:15:04;;;;;;;7.55;6.63;;;6.70;90.20;;;;;;5115068;28;20200;-67
2021/10/31 06:17:32;;;;;;;6.95;6.00;;;6.70;90.70;;;;;;5129213;27;20195;-67
2021/10/31 06:20:02;;;;;;;7.80;7.03;;;6.70;91.10;;;;;;5135071;27;20191;-66
2021/10/31 06:22:31;;;;;;;8.60;7.10;;;6.70;90.90;;;;;;5115206;27;20185;-67
2021/10/31 06:24:59;;;;;;;7.93;7.15;;;6.80;91.30;;;;;;5114948;28;20193;-67
2021/10/31 06:27:35;;;;;;;8.02;7.22;;;6.80;91.40;;;;;;5115536;27;20200;-66
2021/10/31 06:30:05;;;;;;;10.48;8.52;;;6.90;91.40;;;;;;5114858;28;20189;-67
2021/10/31 06:32:37;;;;;;;15.30;11.93;;;7.00;91.50;;;;;;5133047;27;20192;-66
2021/10/31 06:35:14;;;;;;;19.02;12.70;;;7.10;91.50;;;;;;5119085;27;20230;-67
2021/10/31 06:37:48;;;;;;;9.85;7.30;;;7.30;91.70;;;;;;5114438;28;20690;-67
2021/10/31 06:40:17;;;;;;;8.00;5.85;;;7.50;91.10;;;;;;5130292;27;20249;-66
2021/10/31 06:42:46;;;;;;;7.30;6.60;;;7.70;89.80;;;;;;5135174;27;20184;-67
2021/10/31 06:45:15;;;;;;;8.80;7.55;;;7.80;88.10;;;;;;5118690;27;20189;-66
2021/10/31 06:47:42;;;;;;;8.75;7.45;;;7.90;86.20;;;;;;5114327;28;20200;-66
2021/10/31 06:50:10;;;;;;;7.55;5.72;;;8.10;87.50;;;;;;5128226;27;20216;-67
2021/10/31 06:52:37;;;;;;;8.45;7.65;;;8.40;87.50;;;;;;5133041;27;20252;-67
2021/10/31 06:55:08;;;;;;;11.30;8.45;;;8.60;86.40;;;;;;5114199;28;20669;-66
2021/10/31 06:57:36;;;;;;;9.90;8.68;;;8.90;87.10;;;;;;5114577;27;20193;-67
2021/10/31 07:00:08;;;;;;;11.30;9.45;;;9.20;87.00;;;;;;5114396;27;20227;-67
2021/10/31 07:02:41;;;;;;;13.82;11.25;;;9.50;85.20;;;;;;5123368;27;20202;-66
2021/10/31 07:05:10;;;;;;;11.60;9.35;;;9.80;83.60;;;;;;5134551;27;20233;-66
2021/10/31 07:07:40;;;;;;;11.48;10.25;;;10.20;81.40;;;;;;5124273;27;20189;-66
2021/10/31 07:10:08;;;;;;;10.98;8.65;;;10.50;81.70;;;;;;5113957;28;20193;-66
2021/10/31 07:12:35;;;;;;;9.20;8.30;;;10.80;79.40;;;;;;5114683;27;20177;-66
2021/10/31 07:15:08;;;;;;;9.27;8.38;;;11.20;77.10;;;;;;5114169;28;20197;-67
2021/10/31 07:17:39;;;;;;;7.10;5.82;;;11.40;75.50;;;;;;5121780;27;20184;-67
2021/10/31 07:20:13;;;;;;;6.82;6.13;;;11.60;74.70;;;;;;5133970;27;20274;-66
2021/10/31 07:22:46;;;;;;;12.18;8.60;;;11.80;73.20;;;;;;5124995;27;20268;-67
2021/10/31 07:25:25;;;;;;;7.68;6.80;;;12.00;71.00;;;;;;5113728;28;20192;-67
2021/10/31 07:27:53;;;;;;;8.60;7.70;;;12.00;70.00;;;;;;5122757;27;20200;-66
2021/10/31 07:30:25;;;;;;;8.80;7.30;;;11.70;69.70;;;;;;5133897;27;20192;-66
2021/10/31 07:32:59;;;;;;;11.32;9.40;;;11.80;71.50;;;;;;5124534;27;20189;-67
2021/10/31 07:35:29;;;;;;;8.70;7.80;;;12.30;71.30;;;;;;5113576;28;20249;-67
2021/10/31 07:37:57;;;;;;;10.02;8.38;;;13.00;68.70;;;;;;5114392;27;20199;-67
2021/10/31 07:40:25;;;;;;;13.73;9.50;;;13.60;68.80;;;;;;5113483;28;20231;-68
2021/10/31 07:42:53;;;;;;;7.53;6.43;;;14.20;67.50;;;;;;5131694;27;20280;-67
2021/10/31 07:45:23;;;;;;;10.15;7.05;;;14.90;64.00;;;;;;5121275;27;20239;-67
2021/10/31 07:47:50;;;;;;;7.65;6.90;;;15.20;61.00;;;;;;5127728;27;20188;-67
2021/10/31 07:50:22;;;;;;;8.20;6.35;;;15.70;60.20;;;;;;5131408;27;20328;-68
2021/10/31 07:52:51;;;;;;;7.47;6.20;;;16.30;58.30;;;;;;5133787;27;20191;-67
2021/10/31 07:55:29;;;;;;;10.25;6.68;;;16.90;56.70;;;;;;5122174;27;20438;-67
2021/10/31 07:57:56;;;;;;;10.20;7.60;;;17.50;55.40;;;;;;5113222;28;20195;-68
2021/10/31 08:00:24;;;;;;;8.90;6.70;;;18.00;54.20;;;;;;5124493;27;20446;-67
2021/10/31 08:02:53;;;;;;;7.27;5.73;;;18.60;53.10;;;;;;5133632;27;20441;-67
2021/10/31 08:05:20;;;;;;;8.20;7.30;;;19.20;53.30;;;;;;5131656;27;20440;-67
2021/10/31 08:07:47;;;;;;;8.80;6.60;;;19.60;51.90;;;;;;5133559;27;20522;-68
2021/10/31 08:10:18;;;;;;;10.53;7.67;;;20.00;50.70;;;;;;5123857;27;20478;-67
2021/10/31 08:12:50;;;;;;;8.27;6.60;;;20.60;50.00;;;;;;5113255;28;20456;-67
2021/10/31 08:15:36;;;;;;;7.57;6.47;;;21.20;46.70;;;;;;5120245;28;20448;-68
2021/10/31 08:18:09;;;;;;;11.30;8.23;;;21.80;46.80;;;;;;5133519;27;20426;-67
2021/10/31 08:20:38;;;;;;;8.80;7.60;;;22.40;44.50;;;;;;5121874;27;20437;-67
2021/10/31 08:23:05;;;;;;;7.70;6.47;;;23.00;43.60;;;;;;5113040;28;20859;-68
2021/10/31 08:25:34;;;;;;;7.13;5.27;;;23.50;41.00;;;;;;5123366;28;20506;-68
2021/10/31 08:28:08;;;;;;;4.20;3.60;;;23.90;40.50;;;;;;5104495;28;20444;-67
2021/10/31 08:30:44;;;;;;;4.70;3.87;;;24.10;38.10;;;;;;5133047;27;20437;-70
2021/10/31 08:33:19;;;;;;;4.00;3.60;;;24.80;37.60;;;;;;5125653;27;20445;-68
2021/10/31 08:35:49;;;;;;;6.60;4.60;;;26.00;36.10;;;;;;5116031;27;20466;-67
2021/10/31 08:38:16;;;;;;;6.30;5.03;;;27.10;34.70;;;;;;5112642;28;20431;-67
2021/10/31 08:40:48;;;;;;;7.93;5.00;;;28.10;32.30;;;;;;5112450;28;20497;-68
2021/10/31 08:43:16;;;;;;;4.93;4.43;;;29.10;31.00;;;;;;5112514;28;20431;-68
2021/10/31 08:45:44;;;;;;;4.80;4.20;;;29.80;30.30;;;;;;5112590;28;20474;-68
2021/10/31 08:48:13;;;;;;;4.83;4.07;;;30.70;28.80;;;;;;5116845;28;20422;-68
2021/10/31 08:50:40;;;;;;;4.30;3.50;;;31.40;27.40;;;;;;5132911;27;20472;-68
2021/10/31 08:53:08;;;;;;;4.57;3.97;;;32.20;26.20;;;;;;5129123;27;20430;-68
2021/10/31 08:55:39;;;;;;;4.57;3.93;;;32.60;25.40;;;;;;5112486;28;20434;-68
2021/10/31 08:58:11;;;;;;;7.10;3.60;;;33.30;25.30;;;;;;5120272;28;20449;-68
2021/10/31 09:00:39;;;;;;;3.90;3.50;;;34.10;24.30;;;;;;5133214;27;20536;-68
2021/10/31 09:03:06;;;;;;;4.30;3.80;;;34.80;22.80;;;;;;5115010;27;20449;-66
2021/10/31 09:05:34;;;;;;;3.83;3.00;;;35.40;22.30;;;;;;5109629;28;20431;-70
2021/10/31 09:08:02;;;;;;;4.43;3.60;;;36.00;21.20;;;;;;5105898;28;20427;-69
2021/10/31 09:10:30;;;;;;;4.43;3.40;;;36.40;20.90;;;;;;5096654;28;20489;-67
2021/10/31 09:12:57;;;;;;;3.93;3.53;;;37.00;20.30;;;;;;5109455;28;20438;-68
2021/10/31 09:15:26;;;;;;;5.07;3.50;;;37.60;20.10;;;;;;5108473;28;20945;-69
2021/10/31 09:17:53;;;;;;;4.00;3.50;;;38.30;19.30;;;;;;5091435;28;20508;-68
2021/10/31 09:20:25;;;;;;;5.60;3.77;;;39.00;18.50;;;;;;5095786;28;20908;-68
2021/10/31 09:22:52;;;;;;;3.60;2.90;;;39.50;18.20;;;;;;5109715;28;20909;-68
2021/10/31 09:25:21;;;;;;;4.03;3.40;;;40.10;17.20;;;;;;5112214;28;20528;-68
2021/10/31 09:27:48;;;;;;;4.17;3.27;;;40.60;16.90;;;;;;5104234;27;20445;-69
2021/10/31 09:30:16;;;;;;;4.27;3.43;;;41.20;16.50;;;;;;5115229;27;20875;-68
2021/10/31 09:32:49;;;;;;;4.70;3.60;;;41.70;16.30;;;;;;5094667;28;20439;-68
2021/10/31 09:35:18;;;;;;;4.20;2.80;;;42.00;15.70;;;;;;5103511;27;20483;-70
2021/10/31 09:37:50;;;;;;;6.00;5.30;;;42.40;15.40;;;;;;5106576;28;20775;-69
2021/10/31 09:40:27;;;;;;;4.30;3.90;;;42.90;15.00;;;;;;5094045;28;20436;-68
2021/10/31 09:42:56;;;;;;;3.10;2.70;;;43.30;14.70;;;;;;5108758;27;20566;-71
2021/10/31 09:45:30;;;;;;;3.83;3.20;;;43.90;14.20;;;;;;5112896;28;20537;-68
2021/10/31 09:48:01;;;;;;;4.30;3.13;;;44.30;13.30;;;;;;5107902;27;20437;-71
2021/10/31 09:50:37;;;;;;;3.57;3.00;;;44.70;13.50;;;;;;5094393;28;20502;-68
2021/10/31 09:53:10;;;;;;;3.00;2.70;;;45.20;13.30;;;;;;5097179;27;20490;-70
2021/10/31 09:55:41;;;;;;;5.20;3.30;;;45.60;12.40;;;;;;5109057;28;20441;-68
2021/10/31 09:58:17;;;;;;;4.83;3.10;;;45.70;12.50;;;;;;5111207;27;20467;-68
2021/10/31 10:00:49;;;;;;;3.00;2.70;;;46.10;12.60;;;;;;5108491;28;20431;-68
2021/10/31 10:03:34;;;;;;;4.53;3.03;;;46.40;12.00;;;;;;5112104;27;20918;-69
2021/10/31 10:06:28;;;;;;;5.83;3.00;;;46.70;11.50;;;;;;5108865;28;20920;-68
2021/10/31 10:09:06;;;;;;;2.80;2.50;;;46.70;11.70;;;;;;5095304;27;20464;-68
2021/10/31 10:11:36;;;;;;;2.77;2.40;;;47.10;11.80;;;;;;5094219;28;20471;-68
2021/10/31 10:14:17;;;;;;;3.40;2.83;;;47.30;11.40;;;;;;5108799;27;20441;-68
2021/10/31 10:16:59;;;;;;;7.23;5.53;;;47.30;11.00;;;;;;5111769;28;20793;-69
2021/10/31 10:19:31;;;;;;;35.20;21.80;;;47.30;11.40;;;;;;5099379;27;20475;-69
2021/10/31 10:22:08;;;;;;;32.10;17.03;;;47.40;11.40;;;;;;5094186;28;20810;-66
2021/10/31 10:24:48;;;;;;;12.30;11.00;;;47.90;11.20;;;;;;5108293;27;20525;-66
2021/10/31 10:27:16;;;;;;;8.23;7.43;;;48.60;10.70;;;;;;5108388;28;20503;-68
2021/10/31 10:29:44;;;;;;;5.60;3.60;;;49.20;10.80;;;;;;5111158;27;20478;-71
2021/10/31 10:32:13;;;;;;;2.77;2.20;;;49.50;10.30;;;;;;5112005;28;20495;-68
2021/10/31 10:34:47;;;;;;;5.53;2.40;;;49.60;10.10;;;;;;5105217;27;20431;-68
2021/10/31 10:37:17;;;;;;;3.67;2.80;;;49.90;10.50;;;;;;5093659;28;20443;-70
2021/10/31 10:39:48;;;;;;;3.53;2.80;;;50.30;10.00;;;;;;5106709;27;20565;-69
2021/10/31 10:42:26;;;;;;;6.73;2.53;;;50.60;9.70;;;;;;5111736;28;20453;-69
2021/10/31 10:44:59;;;;;;;3.37;3.07;;;50.90;9.50;;;;;;5099217;27;20501;-69
2021/10/31 10:47:29;;;;;;;3.90;2.37;;;51.10;9.20;;;;;;5107910;28;20442;-68
2021/10/31 10:50:03;;;;;;;4.13;2.10;;;51.40;9.20;;;;;;5109357;27;20848;-66
2021/10/31 10:52:40;;;;;;;2.50;2.30;;;51.70;9.20;;;;;;5093549;28;20435;-66
2021/10/31 10:55:13;;;;;;;2.87;2.40;;;52.00;9.10;;;;;;5093656;28;20443;-66
2021/10/31 10:58:06;;;;;;;3.03;2.60;;;52.20;8.40;;;;;;5094846;27;20439;-67
2021/10/31 11:00:38;;;;;;;3.60;2.27;;;52.20;8.30;;;;;;5091522;28;20483;-71
2021/10/31 11:03:07;;;;;;;2.70;2.33;;;52.40;8.30;;;;;;5109365;27;20985;-67
2021/10/31 11:05:41;;;;;;;2.60;2.30;;;52.60;8.30;;;;;;5110786;28;20446;-66
2021/10/31 11:08:10;;;;;;;3.13;2.50;;;;;;;;;;5108190;27;20427;-66
2021/10/31 11:10:49;;;;;;;3.77;2.33;;;;;;;;;;5110977;28;20492;-69
2021/10/31 11:13:17;;;;;;;3.07;2.50;;;;;;;;;;5100039;27;20501;-67
2021/10/31 11:15:50;;;;;;;4.47;2.53;;;;;;;;;;5102923;28;20435;-69
2021/10/31 11:18:18;;;;;;;2.67;2.10;;;;;;;;;;5106214;27;20431;-69
2021/10/31 11:20:48;;;;;;;3.00;2.60;;;;;;;;;;5092770;28;20486;-69
2021/10/31 11:23:21;;;;;;;2.60;2.03;;;;;;;;;;5102131;27;20484;-69
2021/10/31 11:25:49;;;;;;;3.07;2.77;;;;;;;;;;5092870;28;20431;-66
2021/10/31 11:28:23;;;;;;;5.83;2.50;;;52.70;8.10;;;;;;5102045;27;20436;-69
2021/10/31 11:30:52;;;;;;;3.77;2.63;;;;;;;;;;5092585;28;21402;-69
2021/10/31 11:33:20;;;;;;;3.03;2.30;;;;;;;;;;5105067;27;20475;-70
2021/10/31 11:35:49;;;;;;;3.50;2.60;;;;;;;;;;5092660;28;20834;-68
2021/10/31 11:38:17;;;;;;;3.17;2.43;;;;;;;;;;5100178;27;20473;-68
2021/10/31 11:40:48;;;;;;;2.97;2.53;;;;;;;;;;5092539;28;20521;-68
2021/10/31 11:43:16;;;;;;;4.50;2.30;;;;;;;;;;5107408;27;20538;-70
2021/10/31 11:45:45;;;;;;;3.30;2.27;;;;;;;;;;5105107;27;20525;-68
2021/10/31 11:48:14;;;;;;;2.40;1.73;;;;;;;;;;5103225;27;20476;-68
2021/10/31 11:50:42;;;;;;;2.50;1.20;;;;;;;;;;5106939;27;20462;-70
2021/10/31 11:53:20;;;;;;;2.80;1.37;;;53.40;7.40;;;;;;5100213;28;20444;-70
2021/10/31 11:55:53;;;;;;;2.20;1.40;;;52.80;6.30;;;;;;5098938;27;20542;-70
2021/10/31 11:58:46;;;;;;;2.00;1.20;;;52.40;6.40;;;;;;5107973;28;21460;-68
2021/10/31 12:01:20;;;;;;;3.07;1.10;;;52.10;6.20;;;;;;5115037;27;20480;-68
2021/10/31 12:03:49;;;;;;;2.37;1.47;;;51.60;6.40;;;;;;5113617;27;20439;-69
2021/10/31 12:06:49;;;;;;;1.80;1.20;;;51.10;6.30;;;;;;5116912;27;20493;-68
2021/10/31 12:09:31;;;;;;;2.10;1.30;;;50.50;6.90;;;;;;5053012;28;21033;-68
2021/10/31 12:12:22;;;;;;;2.00;1.27;;;50.20;6.60;;;;;;5103157;27;20935;-69
2021/10/31 12:14:55;;;;;;;2.50;1.17;;;49.70;7.00;;;;;;5112152;28;20885;-68
2021/10/31 12:17:25;;;;;;;2.10;1.20;;;49.40;7.10;;;;;;5118984;28;20433;-68
2021/10/31 12:19:54;;;;;;;2.23;1.37;;;48.90;7.20;;;;;;5117097;28;20483;-68
2021/10/31 12:22:33;;;;;;;2.10;1.30;;;48.60;7.60;;;;;;5113555;27;20445;-69
2021/10/31 12:25:04;;;;;;;2.07;1.30;;;48.30;7.50;;;;;;5115599;28;20458;-68
2021/10/31 12:27:42;;;;;;;2.63;1.43;;;48.10;7.10;;;;;;5113118;28;20549;-69
2021/10/31 12:30:42;;;;;;;3.20;1.50;;;47.90;7.70;;;;;;5107416;28;20433;-68
2021/10/31 12:33:13;;;;;;;2.20;1.30;;;48.30;7.80;;;;;;5118733;28;20435;-68
2021/10/31 12:35:44;;;;;;;1.90;1.30;;;47.90;7.40;;;;;;5119011;28;20453;-68
2021/10/31 12:38:35;;;;;;;2.30;1.60;;;47.50;8.00;;;;;;5109361;28;20545;-69
2021/10/31 12:41:34;;;;;;;2.00;1.27;;;46.80;7.80;;;;;;5107418;28;20481;-68
2021/10/31 12:44:13;;;;;;;2.60;1.40;;;46.00;8.40;;;;;;5119949;28;20495;-68
2021/10/31 12:46:43;;;;;;;1.80;1.00;;;45.10;9.10;;;;;;5116136;28;20879;-68
2021/10/31 12:49:22;;;;;;;2.50;1.70;;;44.50;9.30;;;;;;5114890;28;20470;-68
2021/10/31 12:51:58;;;;;;;2.50;1.20;;;44.00;9.80;;;;;;5107556;28;20436;-68
2021/10/31 12:54:35;;;;;;;5.20;1.50;;;43.40;9.50;;;;;;5109896;28;20430;-67
2021/10/31 12:57:08;;;;;;;2.00;1.30;;;43.20;10.20;;;;;;5111795;28;20865;-68
2021/10/31 12:59:45;;;;;;;2.30;1.50;;;42.60;10.40;;;;;;5113434;28;21269;-68
2021/10/31 13:02:15;;;;;;;3.80;2.00;;;41.90;10.30;;;;;;5111259;27;20525;-68
2021/10/31 13:04:54;;;;;;;2.93;1.63;;;41.30;10.70;;;;;;5107525;28;20946;-68
2021/10/31 13:07:26;;;;;;;9.73;8.83;;;40.50;11.30;;;;;;5100672;27;21772;-67
2021/10/31 13:09:56;;;;;;;2.70;1.97;;;39.30;11.80;;;;;;5113294;27;21097;-67
2021/10/31 13:12:27;;;;;;;2.43;1.40;;;38.50;12.60;;;;;;5103527;27;20495;-67
2021/10/31 13:15:11;;;;;;;4.30;3.60;;;37.70;12.60;;;;;;5113952;27;20433;-67
2021/10/31 13:17:42;;;;;;;5.67;5.17;;;37.00;13.30;;;;;;5112583;27;20449;-68